sensor_id;sensor_type;location;lat;lon;timestamp;P1;durP1;ratioP1;P2;durP2;ratioP2
42168;SDS011;27838;43.858;25.974;2022-11-15T00:00:49;10.77;;;7.10;;
42168;SDS011;27838;43.858;25.974;2022-11-15T00:03:17;16.35;;;7.75;;
42168;SDS011;27838;43.858;25.974;2022-11-15T00:05:45;12.55;;;8.02;;
42168;SDS011;27838;43.858;25.974;2022-11-15T00:08:12;13.82;;;8.07;;
42168;SDS011;27838;43.858;25.974;2022-11-15T00:10:38;19.60;;;8.50;;
42168;SDS011;27838;43.858;25.974;2022-11-15T00:13:09;15.32;;;9.23;;
42168;SDS011;27838;43.858;25.974;2022-11-15T00:15:38;16.88;;;8.45;;
42168;SDS011;27838;43.858;25.974;2022-11-15T00:18:05;18.77;;;8.60;;
42168;SDS011;27838;43.858;25.974;2022-11-15T00:23:03;21.50;;;8.57;;
42168;SDS011;27838;43.858;25.974;2022-11-15T00:25:30;19.58;;;8.98;;
42168;SDS011;27838;43.858;25.974;2022-11-15T00:27:57;20.92;;;9.65;;
42168;SDS011;27838;43.858;25.974;2022-11-15T00:30:25;24.67;;;9.57;;
42168;SDS011;27838;43.858;25.974;2022-11-15T00:32:52;21.35;;;9.50;;
42168;SDS011;27838;43.858;25.974;2022-11-15T00:35:19;21.25;;;9.23;;
42168;SDS011;27838;43.858;25.974;2022-11-15T00:37:46;24.73;;;9.82;;
42168;SDS011;27838;43.858;25.974;2022-11-15T00:40:13;18.90;;;9.75;;
42168;SDS011;27838;43.858;25.974;2022-11-15T00:42:40;24.98;;;9.48;;
42168;SDS011;27838;43.858;25.974;2022-11-15T00:45:07;21.92;;;10.48;;
42168;SDS011;27838;43.858;25.974;2022-11-15T00:47:34;19.33;;;8.68;;
42168;SDS011;27838;43.858;25.974;2022-11-15T00:50:01;18.08;;;8.60;;
42168;SDS011;27838;43.858;25.974;2022-11-15T00:52:27;25.30;;;9.93;;
42168;SDS011;27838;43.858;25.974;2022-11-15T00:54:54;25.60;;;10.00;;
42168;SDS011;27838;43.858;25.974;2022-11-15T00:57:20;17.38;;;8.38;;
42168;SDS011;27838;43.858;25.974;2022-11-15T00:59:47;29.00;;;9.32;;
42168;SDS011;27838;43.858;25.974;2022-11-15T01:02:13;18.55;;;9.27;;
42168;SDS011;27838;43.858;25.974;2022-11-15T01:04:40;26.40;;;9.82;;
42168;SDS011;27838;43.858;25.974;2022-11-15T01:07:06;27.65;;;10.48;;
42168;SDS011;27838;43.858;25.974;2022-11-15T01:09:33;18.27;;;9.85;;
42168;SDS011;27838;43.858;25.974;2022-11-15T01:11:59;28.17;;;10.15;;
42168;SDS011;27838;43.858;25.974;2022-11-15T01:14:26;28.52;;;10.18;;
42168;SDS011;27838;43.858;25.974;2022-11-15T01:16:52;26.20;;;9.77;;
42168;SDS011;27838;43.858;25.974;2022-11-15T01:19:19;20.45;;;9.38;;
42168;SDS011;27838;43.858;25.974;2022-11-15T01:21:45;24.33;;;9.98;;
42168;SDS011;27838;43.858;25.974;2022-11-15T01:24:15;22.88;;;9.90;;
42168;SDS011;27838;43.858;25.974;2022-11-15T01:26:42;17.80;;;9.45;;
42168;SDS011;27838;43.858;25.974;2022-11-15T01:29:08;19.80;;;9.43;;
42168;SDS011;27838;43.858;25.974;2022-11-15T01:31:35;16.13;;;8.55;;
42168;SDS011;27838;43.858;25.974;2022-11-15T01:34:01;25.00;;;9.82;;
42168;SDS011;27838;43.858;25.974;2022-11-15T01:36:28;22.55;;;10.25;;
42168;SDS011;27838;43.858;25.974;2022-11-15T01:38:55;26.35;;;10.57;;
42168;SDS011;27838;43.858;25.974;2022-11-15T01:41:24;20.48;;;10.07;;
42168;SDS011;27838;43.858;25.974;2022-11-15T01:43:56;25.38;;;10.18;;
42168;SDS011;27838;43.858;25.974;2022-11-15T01:46:42;23.40;;;11.27;;
42168;SDS011;27838;43.858;25.974;2022-11-15T01:49:17;20.70;;;9.95;;
42168;SDS011;27838;43.858;25.974;2022-11-15T01:51:45;17.00;;;8.68;;
42168;SDS011;27838;43.858;25.974;2022-11-15T01:54:15;19.83;;;9.65;;
42168;SDS011;27838;43.858;25.974;2022-11-15T01:56:50;23.67;;;10.05;;
42168;SDS011;27838;43.858;25.974;2022-11-15T01:59:28;21.70;;;9.43;;
42168;SDS011;27838;43.858;25.974;2022-11-15T02:01:55;30.52;;;9.80;;
42168;SDS011;27838;43.858;25.974;2022-11-15T02:04:23;24.55;;;9.60;;
42168;SDS011;27838;43.858;25.974;2022-11-15T02:06:52;30.23;;;10.77;;
42168;SDS011;27838;43.858;25.974;2022-11-15T02:09:19;25.77;;;10.13;;
42168;SDS011;27838;43.858;25.974;2022-11-15T02:11:46;29.10;;;10.80;;
42168;SDS011;27838;43.858;25.974;2022-11-15T02:14:14;23.85;;;10.50;;
42168;SDS011;27838;43.858;25.974;2022-11-15T02:16:47;23.38;;;9.80;;
42168;SDS011;27838;43.858;25.974;2022-11-15T02:24:46;29.65;;;9.95;;
42168;SDS011;27838;43.858;25.974;2022-11-15T02:27:50;25.38;;;9.68;;
42168;SDS011;27838;43.858;25.974;2022-11-15T02:32:53;22.65;;;9.90;;
42168;SDS011;27838;43.858;25.974;2022-11-15T02:37:52;20.75;;;9.88;;
42168;SDS011;27838;43.858;25.974;2022-11-15T02:43:09;16.90;;;9.40;;
42168;SDS011;27838;43.858;25.974;2022-11-15T02:46:06;18.98;;;10.25;;
42168;SDS011;27838;43.858;25.974;2022-11-15T02:49:09;20.73;;;9.88;;
42168;SDS011;27838;43.858;25.974;2022-11-15T02:51:37;20.58;;;10.35;;
42168;SDS011;27838;43.858;25.974;2022-11-15T02:54:05;15.95;;;9.45;;
42168;SDS011;27838;43.858;25.974;2022-11-15T02:56:32;16.90;;;9.50;;
42168;SDS011;27838;43.858;25.974;2022-11-15T03:04:15;16.05;;;8.50;;
42168;SDS011;27838;43.858;25.974;2022-11-15T03:06:49;15.52;;;8.80;;
42168;SDS011;27838;43.858;25.974;2022-11-15T03:09:24;16.88;;;8.75;;
42168;SDS011;27838;43.858;25.974;2022-11-15T03:12:04;16.85;;;9.50;;
42168;SDS011;27838;43.858;25.974;2022-11-15T03:14:42;14.55;;;8.18;;
42168;SDS011;27838;43.858;25.974;2022-11-15T03:17:23;14.80;;;9.02;;
42168;SDS011;27838;43.858;25.974;2022-11-15T03:19:57;29.23;;;9.20;;
42168;SDS011;27838;43.858;25.974;2022-11-15T03:22:26;20.20;;;9.68;;
42168;SDS011;27838;43.858;25.974;2022-11-15T03:24:57;16.13;;;8.52;;
42168;SDS011;27838;43.858;25.974;2022-11-15T03:27:27;14.10;;;8.83;;
42168;SDS011;27838;43.858;25.974;2022-11-15T03:30:00;17.27;;;9.02;;
42168;SDS011;27838;43.858;25.974;2022-11-15T03:32:31;18.60;;;9.27;;
42168;SDS011;27838;43.858;25.974;2022-11-15T03:35:03;17.90;;;9.85;;
42168;SDS011;27838;43.858;25.974;2022-11-15T03:40:07;18.25;;;9.82;;
42168;SDS011;27838;43.858;25.974;2022-11-15T03:42:36;27.35;;;15.88;;
42168;SDS011;27838;43.858;25.974;2022-11-15T03:48:09;16.45;;;9.43;;
42168;SDS011;27838;43.858;25.974;2022-11-15T03:50:40;16.75;;;9.70;;
42168;SDS011;27838;43.858;25.974;2022-11-15T03:53:09;18.42;;;9.57;;
42168;SDS011;27838;43.858;25.974;2022-11-15T03:55:36;14.98;;;9.52;;
42168;SDS011;27838;43.858;25.974;2022-11-15T03:58:02;15.18;;;8.98;;
42168;SDS011;27838;43.858;25.974;2022-11-15T04:00:29;15.95;;;9.50;;
42168;SDS011;27838;43.858;25.974;2022-11-15T04:02:56;16.90;;;9.50;;
42168;SDS011;27838;43.858;25.974;2022-11-15T04:05:23;16.02;;;9.80;;
42168;SDS011;27838;43.858;25.974;2022-11-15T04:07:49;22.55;;;10.38;;
42168;SDS011;27838;43.858;25.974;2022-11-15T04:10:16;25.60;;;9.77;;
42168;SDS011;27838;43.858;25.974;2022-11-15T04:12:43;20.77;;;9.32;;
42168;SDS011;27838;43.858;25.974;2022-11-15T04:15:13;17.77;;;10.38;;
42168;SDS011;27838;43.858;25.974;2022-11-15T04:17:46;18.60;;;9.82;;
42168;SDS011;27838;43.858;25.974;2022-11-15T04:20:21;14.75;;;9.52;;
42168;SDS011;27838;43.858;25.974;2022-11-15T04:23:11;17.35;;;9.80;;
42168;SDS011;27838;43.858;25.974;2022-11-15T04:25:58;18.48;;;9.60;;
42168;SDS011;27838;43.858;25.974;2022-11-15T04:28:27;23.08;;;9.80;;
42168;SDS011;27838;43.858;25.974;2022-11-15T04:30:54;20.48;;;10.85;;
42168;SDS011;27838;43.858;25.974;2022-11-15T04:33:21;23.73;;;12.07;;
42168;SDS011;27838;43.858;25.974;2022-11-15T04:35:48;19.08;;;11.27;;
42168;SDS011;27838;43.858;25.974;2022-11-15T04:38:28;15.85;;;9.55;;
42168;SDS011;27838;43.858;25.974;2022-11-15T04:40:55;24.63;;;10.48;;
42168;SDS011;27838;43.858;25.974;2022-11-15T04:43:21;19.15;;;9.60;;
42168;SDS011;27838;43.858;25.974;2022-11-15T04:45:48;18.25;;;9.90;;
42168;SDS011;27838;43.858;25.974;2022-11-15T04:48:15;19.85;;;10.20;;
42168;SDS011;27838;43.858;25.974;2022-11-15T04:50:41;29.60;;;12.60;;
42168;SDS011;27838;43.858;25.974;2022-11-15T04:53:08;18.17;;;11.43;;
42168;SDS011;27838;43.858;25.974;2022-11-15T04:55:34;19.15;;;9.82;;
42168;SDS011;27838;43.858;25.974;2022-11-15T04:58:01;19.83;;;11.20;;
42168;SDS011;27838;43.858;25.974;2022-11-15T05:00:28;19.95;;;10.73;;
42168;SDS011;27838;43.858;25.974;2022-11-15T05:02:56;18.35;;;9.73;;
42168;SDS011;27838;43.858;25.974;2022-11-15T05:05:40;20.42;;;9.98;;
42168;SDS011;27838;43.858;25.974;2022-11-15T05:08:07;22.45;;;11.27;;
42168;SDS011;27838;43.858;25.974;2022-11-15T05:10:34;19.20;;;10.20;;
42168;SDS011;27838;43.858;25.974;2022-11-15T05:13:00;18.52;;;11.07;;
42168;SDS011;27838;43.858;25.974;2022-11-15T05:15:27;26.13;;;12.38;;
42168;SDS011;27838;43.858;25.974;2022-11-15T05:17:57;24.60;;;11.48;;
42168;SDS011;27838;43.858;25.974;2022-11-15T05:20:25;24.55;;;11.18;;
42168;SDS011;27838;43.858;25.974;2022-11-15T05:22:52;23.05;;;13.20;;
42168;SDS011;27838;43.858;25.974;2022-11-15T05:25:20;20.58;;;11.10;;
42168;SDS011;27838;43.858;25.974;2022-11-15T05:27:47;22.88;;;11.30;;
42168;SDS011;27838;43.858;25.974;2022-11-15T05:30:14;28.95;;;12.20;;
42168;SDS011;27838;43.858;25.974;2022-11-15T05:32:42;28.88;;;13.48;;
42168;SDS011;27838;43.858;25.974;2022-11-15T05:35:11;22.63;;;13.20;;
42168;SDS011;27838;43.858;25.974;2022-11-15T05:37:43;23.50;;;11.05;;
42168;SDS011;27838;43.858;25.974;2022-11-15T05:40:10;35.13;;;13.20;;
42168;SDS011;27838;43.858;25.974;2022-11-15T05:42:37;32.03;;;13.07;;
42168;SDS011;27838;43.858;25.974;2022-11-15T05:45:04;23.88;;;12.55;;
42168;SDS011;27838;43.858;25.974;2022-11-15T05:47:32;36.47;;;13.15;;
42168;SDS011;27838;43.858;25.974;2022-11-15T05:50:00;32.53;;;14.07;;
42168;SDS011;27838;43.858;25.974;2022-11-15T05:52:27;24.73;;;13.32;;
42168;SDS011;27838;43.858;25.974;2022-11-15T05:54:57;23.20;;;12.88;;
42168;SDS011;27838;43.858;25.974;2022-11-15T05:57:25;23.00;;;11.77;;
42168;SDS011;27838;43.858;25.974;2022-11-15T05:59:51;29.33;;;11.25;;
42168;SDS011;27838;43.858;25.974;2022-11-15T06:02:18;24.70;;;12.52;;
42168;SDS011;27838;43.858;25.974;2022-11-15T06:04:44;22.23;;;11.93;;
42168;SDS011;27838;43.858;25.974;2022-11-15T06:07:11;24.67;;;13.73;;
42168;SDS011;27838;43.858;25.974;2022-11-15T06:09:37;34.15;;;14.25;;
42168;SDS011;27838;43.858;25.974;2022-11-15T06:12:04;38.92;;;16.50;;
42168;SDS011;27838;43.858;25.974;2022-11-15T06:14:30;33.55;;;15.05;;
42168;SDS011;27838;43.858;25.974;2022-11-15T06:16:57;34.13;;;15.10;;
42168;SDS011;27838;43.858;25.974;2022-11-15T06:19:24;49.45;;;18.98;;
42168;SDS011;27838;43.858;25.974;2022-11-15T06:21:50;35.00;;;15.45;;
42168;SDS011;27838;43.858;25.974;2022-11-15T06:24:17;23.48;;;12.35;;
42168;SDS011;27838;43.858;25.974;2022-11-15T06:26:43;34.72;;;14.18;;
42168;SDS011;27838;43.858;25.974;2022-11-15T06:29:10;23.52;;;12.55;;
42168;SDS011;27838;43.858;25.974;2022-11-15T06:31:36;26.90;;;14.38;;
42168;SDS011;27838;43.858;25.974;2022-11-15T06:34:03;31.75;;;15.73;;
42168;SDS011;27838;43.858;25.974;2022-11-15T06:36:29;22.98;;;13.00;;
42168;SDS011;27838;43.858;25.974;2022-11-15T06:38:56;29.27;;;12.23;;
42168;SDS011;27838;43.858;25.974;2022-11-15T06:41:25;27.90;;;12.60;;
42168;SDS011;27838;43.858;25.974;2022-11-15T06:43:52;22.40;;;11.68;;
42168;SDS011;27838;43.858;25.974;2022-11-15T06:46:18;31.02;;;12.73;;
42168;SDS011;27838;43.858;25.974;2022-11-15T06:48:45;30.98;;;11.57;;
42168;SDS011;27838;43.858;25.974;2022-11-15T06:51:11;22.70;;;11.55;;
42168;SDS011;27838;43.858;25.974;2022-11-15T06:53:38;30.02;;;13.13;;
42168;SDS011;27838;43.858;25.974;2022-11-15T06:56:05;31.77;;;12.25;;
42168;SDS011;27838;43.858;25.974;2022-11-15T06:58:32;31.63;;;13.13;;
42168;SDS011;27838;43.858;25.974;2022-11-15T07:01:00;23.10;;;11.80;;
42168;SDS011;27838;43.858;25.974;2022-11-15T07:03:28;30.88;;;12.85;;
42168;SDS011;27838;43.858;25.974;2022-11-15T07:05:55;35.20;;;14.30;;
42168;SDS011;27838;43.858;25.974;2022-11-15T07:08:23;33.60;;;12.93;;
42168;SDS011;27838;43.858;25.974;2022-11-15T07:10:50;24.08;;;13.13;;
42168;SDS011;27838;43.858;25.974;2022-11-15T07:13:16;27.08;;;13.25;;
42168;SDS011;27838;43.858;25.974;2022-11-15T07:15:43;23.52;;;11.57;;
42168;SDS011;27838;43.858;25.974;2022-11-15T07:18:10;26.48;;;12.80;;
42168;SDS011;27838;43.858;25.974;2022-11-15T07:20:36;23.55;;;11.90;;
42168;SDS011;27838;43.858;25.974;2022-11-15T07:23:04;25.45;;;11.98;;
42168;SDS011;27838;43.858;25.974;2022-11-15T07:25:31;22.98;;;11.52;;
42168;SDS011;27838;43.858;25.974;2022-11-15T07:27:58;26.35;;;12.05;;
42168;SDS011;27838;43.858;25.974;2022-11-15T07:30:26;28.13;;;12.07;;
42168;SDS011;27838;43.858;25.974;2022-11-15T07:32:56;29.20;;;12.60;;
42168;SDS011;27838;43.858;25.974;2022-11-15T07:35:24;33.22;;;11.38;;
42168;SDS011;27838;43.858;25.974;2022-11-15T07:38:00;22.00;;;11.20;;
42168;SDS011;27838;43.858;25.974;2022-11-15T07:40:28;20.90;;;11.73;;
42168;SDS011;27838;43.858;25.974;2022-11-15T07:43:00;29.92;;;12.25;;
42168;SDS011;27838;43.858;25.974;2022-11-15T07:45:30;28.98;;;12.80;;
42168;SDS011;27838;43.858;25.974;2022-11-15T07:47:58;29.95;;;13.82;;
42168;SDS011;27838;43.858;25.974;2022-11-15T07:50:25;46.22;;;18.52;;
42168;SDS011;27838;43.858;25.974;2022-11-15T07:52:54;29.98;;;13.68;;
42168;SDS011;27838;43.858;25.974;2022-11-15T07:55:26;30.53;;;13.07;;
42168;SDS011;27838;43.858;25.974;2022-11-15T07:58:04;24.10;;;11.95;;
42168;SDS011;27838;43.858;25.974;2022-11-15T08:00:33;26.55;;;13.63;;
42168;SDS011;27838;43.858;25.974;2022-11-15T08:03:03;32.67;;;12.85;;
42168;SDS011;27838;43.858;25.974;2022-11-15T08:05:38;24.70;;;12.95;;
42168;SDS011;27838;43.858;25.974;2022-11-15T08:08:06;37.25;;;13.70;;
42168;SDS011;27838;43.858;25.974;2022-11-15T08:10:35;34.65;;;14.38;;
42168;SDS011;27838;43.858;25.974;2022-11-15T08:13:05;26.90;;;12.13;;
42168;SDS011;27838;43.858;25.974;2022-11-15T08:15:35;34.05;;;12.32;;
42168;SDS011;27838;43.858;25.974;2022-11-15T08:18:03;31.65;;;13.52;;
42168;SDS011;27838;43.858;25.974;2022-11-15T08:20:31;33.75;;;14.25;;
42168;SDS011;27838;43.858;25.974;2022-11-15T08:22:59;31.27;;;14.60;;
42168;SDS011;27838;43.858;25.974;2022-11-15T08:25:28;34.00;;;13.90;;
42168;SDS011;27838;43.858;25.974;2022-11-15T08:27:56;25.65;;;12.68;;
42168;SDS011;27838;43.858;25.974;2022-11-15T08:30:25;34.05;;;12.15;;
42168;SDS011;27838;43.858;25.974;2022-11-15T08:32:52;27.08;;;13.25;;
42168;SDS011;27838;43.858;25.974;2022-11-15T08:35:20;36.97;;;14.20;;
42168;SDS011;27838;43.858;25.974;2022-11-15T08:37:47;23.50;;;11.93;;
42168;SDS011;27838;43.858;25.974;2022-11-15T08:40:13;30.88;;;13.75;;
42168;SDS011;27838;43.858;25.974;2022-11-15T08:42:40;44.42;;;16.08;;
42168;SDS011;27838;43.858;25.974;2022-11-15T08:45:07;28.77;;;12.95;;
42168;SDS011;27838;43.858;25.974;2022-11-15T08:47:34;27.80;;;13.40;;
42168;SDS011;27838;43.858;25.974;2022-11-15T08:50:01;25.15;;;12.85;;
42168;SDS011;27838;43.858;25.974;2022-11-15T08:52:28;26.33;;;12.65;;
42168;SDS011;27838;43.858;25.974;2022-11-15T08:54:54;25.58;;;12.60;;
42168;SDS011;27838;43.858;25.974;2022-11-15T08:57:21;21.02;;;12.20;;
42168;SDS011;27838;43.858;25.974;2022-11-15T08:59:47;25.52;;;12.00;;
42168;SDS011;27838;43.858;25.974;2022-11-15T09:02:14;29.63;;;13.65;;
42168;SDS011;27838;43.858;25.974;2022-11-15T09:04:41;29.52;;;12.57;;
42168;SDS011;27838;43.858;25.974;2022-11-15T09:07:09;53.70;;;13.68;;
42168;SDS011;27838;43.858;25.974;2022-11-15T09:09:37;40.03;;;14.13;;
42168;SDS011;27838;43.858;25.974;2022-11-15T09:12:04;41.65;;;14.40;;
42168;SDS011;27838;43.858;25.974;2022-11-15T09:14:32;41.85;;;14.77;;
42168;SDS011;27838;43.858;25.974;2022-11-15T09:16:59;32.50;;;14.40;;
42168;SDS011;27838;43.858;25.974;2022-11-15T09:19:26;37.40;;;14.82;;
42168;SDS011;27838;43.858;25.974;2022-11-15T09:21:52;33.17;;;13.98;;
42168;SDS011;27838;43.858;25.974;2022-11-15T09:24:19;29.60;;;15.18;;
42168;SDS011;27838;43.858;25.974;2022-11-15T09:26:45;31.85;;;13.82;;
42168;SDS011;27838;43.858;25.974;2022-11-15T09:29:12;33.35;;;14.23;;
42168;SDS011;27838;43.858;25.974;2022-11-15T09:31:39;32.50;;;13.73;;
42168;SDS011;27838;43.858;25.974;2022-11-15T09:34:05;27.50;;;14.25;;
42168;SDS011;27838;43.858;25.974;2022-11-15T09:36:32;33.70;;;14.00;;
42168;SDS011;27838;43.858;25.974;2022-11-15T09:38:58;31.77;;;15.13;;
42168;SDS011;27838;43.858;25.974;2022-11-15T09:49:53;51.88;;;16.27;;
42168;SDS011;27838;43.858;25.974;2022-11-15T09:52:21;44.80;;;18.33;;
42168;SDS011;27838;43.858;25.974;2022-11-15T09:54:49;31.42;;;14.75;;
42168;SDS011;27838;43.858;25.974;2022-11-15T10:00:00;29.92;;;14.50;;
42168;SDS011;27838;43.858;25.974;2022-11-15T10:05:29;42.60;;;16.92;;
42168;SDS011;27838;43.858;25.974;2022-11-15T10:08:16;32.70;;;14.32;;
42168;SDS011;27838;43.858;25.974;2022-11-15T10:10:52;29.52;;;14.07;;
42168;SDS011;27838;43.858;25.974;2022-11-15T10:13:32;33.20;;;14.68;;
42168;SDS011;27838;43.858;25.974;2022-11-15T10:16:09;36.42;;;15.60;;
42168;SDS011;27838;43.858;25.974;2022-11-15T10:21:21;29.13;;;14.95;;
42168;SDS011;27838;43.858;25.974;2022-11-15T10:23:55;30.10;;;16.63;;
42168;SDS011;27838;43.858;25.974;2022-11-15T10:26:22;28.83;;;15.38;;
42168;SDS011;27838;43.858;25.974;2022-11-15T10:28:50;25.88;;;15.52;;
42168;SDS011;27838;43.858;25.974;2022-11-15T10:31:26;27.42;;;15.80;;
42168;SDS011;27838;43.858;25.974;2022-11-15T10:33:59;26.30;;;15.00;;
42168;SDS011;27838;43.858;25.974;2022-11-15T10:36:38;26.48;;;15.20;;
42168;SDS011;27838;43.858;25.974;2022-11-15T10:39:19;24.23;;;14.88;;
42168;SDS011;27838;43.858;25.974;2022-11-15T10:41:46;30.00;;;15.80;;
42168;SDS011;27838;43.858;25.974;2022-11-15T10:46:42;25.25;;;15.02;;
42168;SDS011;27838;43.858;25.974;2022-11-15T10:49:15;26.40;;;14.77;;
42168;SDS011;27838;43.858;25.974;2022-11-15T10:51:51;29.10;;;16.55;;
42168;SDS011;27838;43.858;25.974;2022-11-15T10:57:28;30.67;;;15.73;;
42168;SDS011;27838;43.858;25.974;2022-11-15T10:59:59;32.97;;;16.63;;
42168;SDS011;27838;43.858;25.974;2022-11-15T11:02:36;27.48;;;16.33;;
42168;SDS011;27838;43.858;25.974;2022-11-15T11:08:21;27.52;;;16.58;;
42168;SDS011;27838;43.858;25.974;2022-11-15T11:10:55;29.30;;;17.38;;
42168;SDS011;27838;43.858;25.974;2022-11-15T11:13:27;30.95;;;17.23;;
42168;SDS011;27838;43.858;25.974;2022-11-15T11:24:17;29.63;;;17.27;;
42168;SDS011;27838;43.858;25.974;2022-11-15T11:27:12;31.15;;;18.45;;
42168;SDS011;27838;43.858;25.974;2022-11-15T11:30:06;30.50;;;18.50;;
42168;SDS011;27838;43.858;25.974;2022-11-15T11:33:44;44.10;;;18.13;;
42168;SDS011;27838;43.858;25.974;2022-11-15T11:47:11;29.58;;;17.88;;
42168;SDS011;27838;43.858;25.974;2022-11-15T11:49:52;34.75;;;18.88;;
42168;SDS011;27838;43.858;25.974;2022-11-15T11:55:26;37.83;;;20.00;;
42168;SDS011;27838;43.858;25.974;2022-11-15T12:00:46;35.42;;;19.08;;
42168;SDS011;27838;43.858;25.974;2022-11-15T12:03:29;36.15;;;17.88;;
42168;SDS011;27838;43.858;25.974;2022-11-15T12:09:04;30.77;;;17.08;;
42168;SDS011;27838;43.858;25.974;2022-11-15T12:14:12;26.60;;;16.40;;
42168;SDS011;27838;43.858;25.974;2022-11-15T12:17:00;29.17;;;17.77;;
42168;SDS011;27838;43.858;25.974;2022-11-15T12:19:26;27.42;;;15.38;;
42168;SDS011;27838;43.858;25.974;2022-11-15T12:21:59;30.10;;;16.95;;
42168;SDS011;27838;43.858;25.974;2022-11-15T12:24:34;31.02;;;16.73;;
42168;SDS011;27838;43.858;25.974;2022-11-15T12:27:13;40.00;;;18.02;;
42168;SDS011;27838;43.858;25.974;2022-11-15T12:29:50;38.33;;;17.67;;
42168;SDS011;27838;43.858;25.974;2022-11-15T12:32:30;35.60;;;17.10;;
42168;SDS011;27838;43.858;25.974;2022-11-15T12:35:00;27.88;;;16.90;;
42168;SDS011;27838;43.858;25.974;2022-11-15T12:45:25;33.80;;;18.90;;
42168;SDS011;27838;43.858;25.974;2022-11-15T12:51:07;40.33;;;18.88;;
42168;SDS011;27838;43.858;25.974;2022-11-15T12:53:32;31.00;;;19.85;;
42168;SDS011;27838;43.858;25.974;2022-11-15T12:58:51;31.42;;;18.50;;
42168;SDS011;27838;43.858;25.974;2022-11-15T13:02:16;28.23;;;18.63;;
42168;SDS011;27838;43.858;25.974;2022-11-15T13:12:08;34.03;;;18.90;;
42168;SDS011;27838;43.858;25.974;2022-11-15T13:14:45;37.95;;;20.05;;
42168;SDS011;27838;43.858;25.974;2022-11-15T13:20:26;30.05;;;18.42;;
42168;SDS011;27838;43.858;25.974;2022-11-15T13:28:09;33.08;;;18.55;;
42168;SDS011;27838;43.858;25.974;2022-11-15T13:33:26;31.00;;;19.42;;
42168;SDS011;27838;43.858;25.974;2022-11-15T13:36:13;34.60;;;18.52;;
42168;SDS011;27838;43.858;25.974;2022-11-15T13:38:44;33.10;;;19.90;;
42168;SDS011;27838;43.858;25.974;2022-11-15T13:41:20;32.35;;;17.90;;
42168;SDS011;27838;43.858;25.974;2022-11-15T13:43:51;26.73;;;16.37;;
42168;SDS011;27838;43.858;25.974;2022-11-15T13:46:20;27.08;;;17.42;;
42168;SDS011;27838;43.858;25.974;2022-11-15T13:49:00;31.10;;;17.67;;
42168;SDS011;27838;43.858;25.974;2022-11-15T14:01:56;32.85;;;18.88;;
42168;SDS011;27838;43.858;25.974;2022-11-15T14:04:26;41.08;;;18.65;;
42168;SDS011;27838;43.858;25.974;2022-11-15T14:06:56;28.73;;;18.10;;
42168;SDS011;27838;43.858;25.974;2022-11-15T14:11:58;29.17;;;17.88;;
42168;SDS011;27838;43.858;25.974;2022-11-15T14:14:25;32.55;;;17.00;;
42168;SDS011;27838;43.858;25.974;2022-11-15T14:16:54;37.78;;;17.90;;
42168;SDS011;27838;43.858;25.974;2022-11-15T14:28:07;37.42;;;19.50;;
42168;SDS011;27838;43.858;25.974;2022-11-15T14:30:40;35.25;;;19.58;;
42168;SDS011;27838;43.858;25.974;2022-11-15T14:33:18;34.85;;;20.05;;
42168;SDS011;27838;43.858;25.974;2022-11-15T14:35:47;33.47;;;20.58;;
42168;SDS011;27838;43.858;25.974;2022-11-15T14:38:14;48.38;;;23.75;;
42168;SDS011;27838;43.858;25.974;2022-11-15T14:40:41;51.20;;;23.33;;
42168;SDS011;27838;43.858;25.974;2022-11-15T14:43:09;33.72;;;19.67;;
42168;SDS011;27838;43.858;25.974;2022-11-15T14:45:37;36.05;;;19.85;;
42168;SDS011;27838;43.858;25.974;2022-11-15T14:48:04;33.67;;;20.23;;
42168;SDS011;27838;43.858;25.974;2022-11-15T14:50:31;36.25;;;22.48;;
42168;SDS011;27838;43.858;25.974;2022-11-15T14:52:59;37.55;;;21.42;;
42168;SDS011;27838;43.858;25.974;2022-11-15T14:55:28;37.45;;;20.15;;
42168;SDS011;27838;43.858;25.974;2022-11-15T14:57:57;41.75;;;19.05;;
42168;SDS011;27838;43.858;25.974;2022-11-15T15:00:24;30.92;;;17.83;;
42168;SDS011;27838;43.858;25.974;2022-11-15T15:02:52;34.55;;;18.17;;
42168;SDS011;27838;43.858;25.974;2022-11-15T15:05:20;42.53;;;18.52;;
42168;SDS011;27838;43.858;25.974;2022-11-15T15:07:49;34.33;;;21.55;;
42168;SDS011;27838;43.858;25.974;2022-11-15T15:10:18;39.97;;;21.98;;
42168;SDS011;27838;43.858;25.974;2022-11-15T15:12:45;37.78;;;20.35;;
42168;SDS011;27838;43.858;25.974;2022-11-15T15:15:12;37.67;;;21.33;;
42168;SDS011;27838;43.858;25.974;2022-11-15T15:17:41;37.22;;;21.10;;
42168;SDS011;27838;43.858;25.974;2022-11-15T15:20:07;38.00;;;20.95;;
42168;SDS011;27838;43.858;25.974;2022-11-15T15:22:35;32.83;;;19.70;;
42168;SDS011;27838;43.858;25.974;2022-11-15T15:25:02;37.72;;;20.05;;
42168;SDS011;27838;43.858;25.974;2022-11-15T15:27:29;40.70;;;19.95;;
42168;SDS011;27838;43.858;25.974;2022-11-15T15:29:55;39.13;;;19.58;;
42168;SDS011;27838;43.858;25.974;2022-11-15T15:32:22;41.58;;;22.55;;
42168;SDS011;27838;43.858;25.974;2022-11-15T15:34:48;40.45;;;23.83;;
42168;SDS011;27838;43.858;25.974;2022-11-15T15:39:55;47.50;;;24.25;;
42168;SDS011;27838;43.858;25.974;2022-11-15T15:42:22;44.90;;;24.58;;
42168;SDS011;27838;43.858;25.974;2022-11-15T15:44:49;49.58;;;26.13;;
42168;SDS011;27838;43.858;25.974;2022-11-15T15:47:20;48.58;;;23.50;;
42168;SDS011;27838;43.858;25.974;2022-11-15T15:49:49;44.53;;;21.92;;
42168;SDS011;27838;43.858;25.974;2022-11-15T15:52:16;49.08;;;25.48;;
42168;SDS011;27838;43.858;25.974;2022-11-15T15:54:44;42.03;;;22.33;;
42168;SDS011;27838;43.858;25.974;2022-11-15T15:57:11;47.97;;;22.55;;
42168;SDS011;27838;43.858;25.974;2022-11-15T15:59:39;45.03;;;22.40;;
42168;SDS011;27838;43.858;25.974;2022-11-15T16:02:08;44.42;;;20.27;;
42168;SDS011;27838;43.858;25.974;2022-11-15T16:04:37;39.40;;;20.92;;
42168;SDS011;27838;43.858;25.974;2022-11-15T16:07:04;42.90;;;21.38;;
42168;SDS011;27838;43.858;25.974;2022-11-15T16:09:30;38.13;;;21.23;;
42168;SDS011;27838;43.858;25.974;2022-11-15T16:12:14;44.55;;;22.70;;
42168;SDS011;27838;43.858;25.974;2022-11-15T16:14:41;42.42;;;22.10;;
42168;SDS011;27838;43.858;25.974;2022-11-15T16:17:11;41.38;;;20.80;;
42168;SDS011;27838;43.858;25.974;2022-11-15T16:19:44;39.92;;;20.63;;
42168;SDS011;27838;43.858;25.974;2022-11-15T16:22:10;43.33;;;21.48;;
42168;SDS011;27838;43.858;25.974;2022-11-15T16:24:37;41.58;;;20.88;;
42168;SDS011;27838;43.858;25.974;2022-11-15T16:27:03;46.42;;;21.83;;
42168;SDS011;27838;43.858;25.974;2022-11-15T16:29:30;43.35;;;22.67;;
42168;SDS011;27838;43.858;25.974;2022-11-15T16:31:57;40.83;;;21.65;;
42168;SDS011;27838;43.858;25.974;2022-11-15T16:34:23;40.08;;;21.85;;
42168;SDS011;27838;43.858;25.974;2022-11-15T16:36:50;41.80;;;21.40;;
42168;SDS011;27838;43.858;25.974;2022-11-15T16:39:18;41.47;;;21.65;;
42168;SDS011;27838;43.858;25.974;2022-11-15T16:41:44;39.50;;;21.48;;
42168;SDS011;27838;43.858;25.974;2022-11-15T16:44:14;36.90;;;20.50;;
42168;SDS011;27838;43.858;25.974;2022-11-15T16:46:41;38.67;;;21.33;;